createdAt,value
2019-04-19T00:03:10.813Z,15.40
2019-04-19T00:07:21.471Z,15.40
2019-04-19T00:11:31.404Z,15.30
2019-04-19T00:23:39.999Z,14.90
2019-04-19T00:27:45.609Z,14.90
2019-04-19T00:32:00.273Z,14.80
2019-04-19T00:35:49.695Z,14.70
2019-04-19T00:40:18.453Z,14.60
2019-04-19T00:44:34.473Z,14.50
2019-04-19T00:48:38.309Z,14.50
2019-04-19T00:52:42.196Z,14.50
2019-04-19T00:56:39.806Z,14.50
2019-04-19T01:00:36.625Z,14.40
2019-04-19T01:04:38.476Z,14.20
2019-04-19T01:08:56.295Z,14.20
2019-04-19T01:13:03.296Z,14.20
2019-04-19T01:17:07.434Z,14.20
2019-04-19T01:25:11.789Z,14.10
2019-04-19T01:29:12.060Z,14.00
2019-04-19T01:33:18.912Z,13.80
2019-04-19T01:37:23.440Z,13.80
2019-04-19T01:41:37.304Z,13.90
2019-04-19T01:45:53.301Z,13.90
2019-04-19T01:49:59.749Z,14.00
2019-04-19T01:54:29.667Z,14.00
2019-04-19T01:58:20.818Z,14.00
2019-04-19T02:02:26.082Z,14.00
2019-04-19T02:06:33.628Z,14.00
2019-04-19T02:11:26.619Z,14.00
2019-04-19T02:15:26.691Z,14.10
2019-04-19T02:19:23.220Z,14.00
2019-04-19T02:23:28.248Z,13.80
2019-04-19T02:27:37.197Z,13.70
2019-04-19T02:32:05.167Z,13.60
2019-04-19T02:36:08.228Z,13.60
2019-04-19T02:40:34.760Z,13.60
2019-04-19T02:44:18.131Z,13.60
2019-04-19T02:48:26.403Z,13.60
2019-04-19T02:56:52.215Z,13.60
2019-04-19T03:05:22.839Z,13.30
2019-04-19T03:08:41.902Z,13.40
2019-04-19T03:13:03.309Z,13.50
2019-04-19T03:17:11.228Z,13.60
2019-04-19T03:21:08.812Z,13.70
2019-04-19T03:25:21.368Z,13.70
2019-04-19T03:33:46.264Z,13.70
2019-04-19T03:37:39.873Z,13.70
2019-04-19T03:42:07.266Z,13.60
2019-04-19T03:50:15.166Z,13.20
2019-04-19T03:54:21.749Z,13.10
2019-04-19T03:58:12.385Z,13.10
2019-04-19T04:02:20.031Z,13.00
2019-04-19T04:06:21.997Z,13.00
2019-04-19T04:10:39.735Z,13.00
2019-04-19T04:15:04.707Z,13.00
2019-04-19T04:18:57.567Z,12.90
2019-04-19T04:23:03.635Z,12.80
2019-04-19T04:27:14.596Z,12.70
2019-04-19T04:31:22.481Z,12.60
2019-04-19T04:35:31.748Z,12.50
2019-04-19T04:39:23.949Z,12.50
2019-04-19T04:43:39.171Z,12.40
2019-04-19T04:47:47.503Z,12.50
2019-04-19T04:52:06.576Z,12.60
2019-04-19T04:56:10.514Z,12.70
2019-04-19T05:00:14.004Z,12.80
2019-04-19T05:04:29.689Z,12.80
2019-04-19T05:08:43.011Z,13.00
2019-04-19T05:13:05.607Z,13.20
2019-04-19T05:17:00.499Z,13.50
2019-04-19T05:20:50.914Z,13.80
2019-04-19T05:25:14.746Z,14.10
2019-04-19T05:28:59.736Z,14.20
2019-04-19T05:41:34.334Z,14.60
2019-04-19T05:45:45.633Z,14.70
2019-04-19T05:49:42.870Z,14.70
2019-04-19T05:53:40.673Z,14.80
2019-04-19T05:57:54.027Z,14.90
2019-04-19T06:01:59.054Z,15.10
2019-04-19T06:06:14.164Z,15.00
2019-04-19T06:09:54.071Z,15.20
2019-04-19T06:14:16.926Z,15.60
2019-04-19T06:18:16.693Z,15.80
2019-04-19T06:22:27.214Z,15.90
2019-04-19T06:30:46.985Z,15.80
2019-04-19T06:34:44.305Z,16.20
2019-04-19T06:42:46.367Z,16.70
2019-04-19T06:46:53.552Z,16.70
2019-04-19T06:50:52.976Z,16.80
2019-04-19T06:54:53.996Z,17.00
2019-04-19T06:59:07.105Z,17.10
2019-04-19T07:03:02.660Z,17.10
2019-04-19T07:07:26.323Z,17.10
2019-04-19T07:11:33.190Z,17.00
2019-04-19T07:15:44.309Z,16.80
2019-04-19T07:19:41.000Z,17.00
2019-04-19T07:23:46.521Z,17.20
2019-04-19T07:27:44.239Z,17.30
2019-04-19T07:31:38.573Z,17.50
2019-04-19T07:36:00.693Z,17.80
2019-04-19T07:40:12.418Z,18.30
2019-04-19T07:44:08.627Z,18.30
2019-04-19T07:48:09.001Z,18.60
2019-04-19T07:52:16.379Z,18.90
2019-04-19T07:56:27.290Z,19.00
2019-04-19T08:00:51.764Z,19.60
2019-04-19T08:04:58.196Z,21.50
2019-04-19T08:13:02.537Z,21.70
2019-04-19T08:29:08.401Z,22.90
2019-04-19T08:33:00.177Z,23.70
2019-04-19T08:37:09.633Z,25.50
2019-04-19T08:45:20.637Z,26.40
2019-04-19T08:49:30.087Z,25.50
2019-04-19T08:53:45.127Z,26.20
2019-04-19T08:57:34.748Z,26.60
2019-04-19T09:02:02.912Z,26.90
2019-04-19T09:06:28.187Z,27.40
2019-04-19T09:10:22.075Z,26.70
2019-04-19T09:14:12.329Z,27.10
2019-04-19T09:18:35.431Z,26.20
2019-04-19T09:22:23.197Z,25.40
2019-04-19T09:26:30.795Z,26.10
2019-04-19T09:30:37.926Z,26.30
2019-04-19T09:34:26.989Z,26.80
2019-04-19T09:38:43.567Z,27.70
2019-04-19T09:42:46.893Z,26.00
2019-04-19T09:51:00.017Z,25.90
2019-04-19T09:55:17.262Z,26.70
2019-04-19T09:59:05.981Z,27.20
2019-04-19T10:03:10.325Z,26.30
2019-04-19T10:07:07.022Z,26.70
2019-04-19T10:11:10.882Z,27.10
2019-04-19T10:15:22.305Z,28.10
2019-04-19T10:19:26.618Z,27.80
2019-04-19T10:23:31.525Z,28.40
2019-04-19T10:27:35.598Z,28.40
2019-04-19T10:31:52.245Z,28.30
2019-04-19T10:35:56.460Z,28.00
2019-04-19T10:39:59.696Z,28.30
2019-04-19T10:44:10.658Z,27.80
2019-04-19T10:48:07.791Z,27.90
2019-04-19T10:52:23.791Z,28.40
2019-04-19T10:56:30.102Z,28.00
2019-04-19T11:00:35.451Z,27.30
2019-04-19T11:04:38.847Z,28.40
2019-04-19T11:08:42.548Z,28.50
2019-04-19T11:12:46.885Z,28.20
2019-04-19T11:16:51.373Z,28.40
2019-04-19T11:20:56.325Z,28.20
2019-04-19T11:24:59.722Z,27.40
2019-04-19T11:29:03.854Z,27.50
2019-04-19T11:33:09.030Z,27.40
2019-04-19T11:37:15.704Z,27.80
2019-04-19T11:41:18.913Z,26.70
2019-04-19T11:45:22.149Z,26.60
2019-04-19T11:49:33.649Z,26.30
2019-04-19T12:14:03.846Z,26.80
2019-04-19T12:18:08.212Z,26.70
2019-04-19T12:22:12.804Z,27.20
2019-04-19T12:26:16.101Z,27.10
2019-04-19T12:30:19.772Z,26.70
2019-04-19T12:34:23.771Z,27.20
2019-04-19T12:38:28.230Z,26.70
2019-04-19T12:42:32.091Z,27.10
2019-04-19T12:46:35.264Z,27.80
2019-04-19T12:50:39.329Z,27.30
2019-04-19T12:54:45.904Z,27.80
2019-04-19T12:58:51.557Z,26.40
2019-04-19T13:03:02.087Z,26.70
2019-04-19T13:07:07.121Z,26.80
2019-04-19T13:11:11.275Z,26.50
2019-04-19T13:15:15.623Z,26.60
2019-04-19T13:19:20.556Z,26.20
2019-04-19T13:23:24.293Z,26.20
2019-04-19T13:27:37.460Z,26.10
2019-04-19T13:31:32.445Z,26.10
2019-04-19T13:35:37.186Z,26.10
2019-04-19T13:39:56.389Z,26.30
2019-04-19T13:44:00.652Z,26.80
2019-04-19T13:48:04.813Z,26.70
2019-04-19T13:52:08.446Z,26.80
2019-04-19T13:56:12.893Z,26.90
2019-04-19T14:00:22.620Z,26.30
2019-04-19T14:04:26.105Z,26.70
2019-04-19T14:08:31.038Z,26.90
2019-04-19T14:12:34.616Z,26.10
2019-04-19T14:16:37.735Z,26.20
2019-04-19T14:20:45.668Z,26.30
2019-04-19T14:24:48.989Z,26.10
2019-04-19T14:28:51.519Z,26.30
2019-04-19T14:32:55.791Z,26.20
2019-04-19T14:37:00.236Z,26.40
2019-04-19T14:41:05.270Z,26.30
2019-04-19T14:45:10.079Z,25.90
2019-04-19T14:49:13.247Z,25.90
2019-04-19T14:53:17.866Z,25.50
2019-04-19T14:57:21.977Z,25.70
2019-04-19T15:01:28.712Z,25.90
2019-04-19T15:05:34.060Z,25.90
2019-04-19T15:09:37.504Z,25.50
2019-04-19T15:13:40.977Z,25.40
2019-04-19T15:17:45.311Z,25.40
2019-04-19T15:21:48.558Z,25.40
2019-04-19T15:25:52.849Z,25.50
2019-04-19T15:29:56.843Z,25.50
2019-04-19T15:34:00.832Z,25.90
2019-04-19T15:38:05.760Z,25.50
2019-04-19T15:42:09.072Z,25.60
2019-04-19T15:46:13.430Z,25.70
2019-04-19T15:50:17.972Z,25.40
2019-04-19T15:54:21.217Z,25.30
2019-04-19T15:58:24.621Z,25.20
2019-04-19T16:02:32.106Z,25.20
2019-04-19T16:06:40.578Z,25.50
2019-04-19T16:11:00.761Z,25.10
2019-04-19T16:15:06.198Z,24.80
2019-04-19T16:19:10.180Z,25.10
2019-04-19T16:23:14.160Z,24.90
2019-04-19T16:27:17.604Z,24.60
2019-04-19T16:31:22.367Z,25.10
2019-04-19T16:35:26.376Z,25.10
2019-04-19T16:39:31.384Z,25.20
2019-04-19T16:43:35.470Z,24.90
2019-04-19T16:47:39.506Z,24.90
2019-04-19T16:51:48.985Z,24.80
2019-04-19T16:55:47.739Z,24.90
2019-04-19T16:59:52.213Z,24.80
2019-04-19T17:03:55.514Z,24.70
2019-04-19T17:07:59.593Z,24.50
2019-04-19T17:12:03.266Z,24.80
2019-04-19T17:16:20.005Z,24.80
2019-04-19T17:20:25.688Z,24.60
2019-04-19T17:24:29.239Z,24.40
2019-04-19T17:28:32.950Z,24.50
2019-04-19T17:32:38.443Z,24.50
2019-04-19T17:36:42.202Z,24.40
2019-04-19T17:40:45.373Z,24.20
2019-04-19T17:44:49.463Z,24.20
2019-04-19T17:48:52.762Z,24.10
2019-04-19T17:52:56.913Z,23.90
2019-04-19T17:57:00.021Z,23.80
2019-04-19T18:01:04.193Z,23.80
2019-04-19T18:05:08.114Z,23.80
2019-04-19T18:09:16.193Z,23.60
2019-04-19T18:13:17.568Z,23.40
2019-04-19T18:17:20.874Z,23.30
2019-04-19T18:21:30.856Z,23.20
2019-04-19T18:25:33.027Z,23.10
2019-04-19T18:29:35.810Z,22.90
2019-04-19T18:33:48.040Z,22.80
2019-04-19T18:37:49.321Z,22.60
2019-04-19T18:41:52.327Z,22.40
2019-04-19T18:45:56.939Z,22.30
2019-04-19T18:50:01.579Z,22.10
2019-04-19T18:54:13.368Z,22.00
2019-04-19T18:58:14.488Z,21.90
2019-04-19T19:02:18.460Z,21.80
2019-04-19T19:06:26.944Z,21.60
2019-04-19T19:10:32.471Z,21.50
2019-04-19T19:14:29.636Z,21.30
2019-04-19T19:18:38.388Z,20.70
2019-04-19T19:22:56.273Z,20.40
2019-04-19T19:26:59.744Z,20.20
2019-04-19T19:30:48.780Z,20.00
2019-04-19T19:34:54.654Z,19.80
2019-04-19T19:39:06.769Z,19.60
2019-04-19T19:43:19.068Z,19.40
2019-04-19T19:47:54.135Z,19.30
2019-04-19T19:51:44.507Z,19.00
2019-04-19T19:56:02.889Z,18.80
2019-04-19T19:59:56.270Z,18.80
2019-04-19T20:03:49.403Z,18.70
2019-04-19T20:07:53.667Z,18.60
2019-04-19T20:12:03.935Z,18.40
2019-04-19T20:16:02.965Z,18.30
2019-04-19T20:20:06.810Z,18.20
2019-04-19T20:24:21.935Z,18.10
2019-04-19T20:28:24.656Z,18.00
2019-04-19T20:32:23.981Z,18.00
2019-04-19T20:36:29.724Z,18.10
2019-04-19T20:40:32.326Z,18.10
2019-04-19T20:44:51.191Z,18.00
2019-04-19T20:48:41.373Z,17.90
2019-04-19T20:53:05.691Z,17.80
2019-04-19T20:57:24.581Z,17.70
2019-04-19T21:01:05.183Z,17.60
2019-04-19T21:05:10.700Z,17.50
2019-04-19T21:09:20.326Z,17.50
2019-04-19T21:13:21.040Z,17.40
2019-04-19T21:17:26.211Z,17.40
2019-04-19T21:21:29.238Z,17.50
2019-04-19T21:25:41.918Z,17.40
2019-04-19T21:29:37.381Z,17.30
2019-04-19T21:33:48.511Z,17.20
2019-04-19T21:37:46.498Z,17.10
2019-04-19T21:41:52.593Z,17.00
2019-04-19T21:45:55.175Z,17.00
2019-04-19T21:50:01.139Z,17.00
2019-04-19T21:54:04.211Z,17.00
2019-04-19T21:58:12.883Z,17.10
2019-04-19T22:02:25.639Z,16.90
2019-04-19T22:06:25.944Z,16.80
2019-04-19T22:10:34.541Z,16.80
2019-04-19T22:14:34.109Z,16.80
2019-04-19T22:18:39.734Z,16.70
2019-04-19T22:22:41.368Z,16.70
2019-04-19T22:26:48.193Z,16.70
2019-04-19T22:30:53.029Z,16.70
2019-04-19T22:34:55.778Z,16.60
2019-04-19T22:39:00.697Z,16.50
2019-04-19T22:43:08.251Z,16.50
2019-04-19T22:47:10.021Z,16.60
2019-04-19T22:51:17.244Z,16.60
2019-04-19T22:55:19.929Z,16.50
2019-04-19T22:59:25.339Z,16.50
2019-04-19T23:03:36.738Z,16.40
2019-04-19T23:07:44.982Z,16.30
2019-04-19T23:11:43.773Z,16.20
2019-04-19T23:15:47.774Z,16.30
2019-04-19T23:19:53.223Z,16.20
2019-04-19T23:24:03.903Z,16.00
2019-04-19T23:28:09.340Z,16.00
2019-04-19T23:32:06.862Z,15.90
2019-04-19T23:36:12.885Z,15.80
2019-04-19T23:40:15.218Z,15.60
2019-04-19T23:44:22.726Z,15.50
2019-04-19T23:48:27.954Z,15.50
2019-04-19T23:52:29.225Z,15.40
2019-04-19T23:56:38.363Z,15.40
